Time;durP1;ratioP1;P1;durP2;ratioP2;P2;SDS_P1;SDS_P2;PMS_P1;PMS_P2;Temp;Humidity;BMP_temperature;BMP_pressure;BME280_temperature;BME280_humidity;BME280_pressure;Samples;Min_cycle;Max_cycle;Signal;HPM_P1;HPM_P2
2022/05/20 00:00:08;;;;;;;2.97;2.00;;;;;;;16.18;61.62;101747.66;5051245;27;102598;-49
2022/05/20 00:02:36;;;;;;;2.85;1.85;;;;;;;16.18;61.72;101744.91;5052367;27;103853;-50
2022/05/20 00:05:03;;;;;;;3.60;2.20;;;;;;;16.18;61.71;101750.41;5052556;27;102237;-50
2022/05/20 00:07:29;;;;;;;3.03;2.08;;;;;;;16.17;61.45;101746.84;5051273;27;102260;-49
2022/05/20 00:09:56;;;;;;;2.50;2.00;;;;;;;16.17;61.65;101749.59;5054070;27;102139;-49
2022/05/20 00:12:24;;;;;;;2.78;1.88;;;;;;;16.18;61.48;101742.16;5052214;27;103537;-49
2022/05/20 00:14:50;;;;;;;3.00;1.70;;;;;;;16.17;61.59;101748.78;5052303;27;102454;-49
2022/05/20 00:17:17;;;;;;;2.63;1.73;;;;;;;16.17;61.58;101748.78;5052148;27;102423;-50
2022/05/20 00:19:44;;;;;;;2.30;1.58;;;;;;;16.17;61.88;101754.25;5053954;27;102640;-49
2022/05/20 00:22:11;;;;;;;3.45;1.60;;;;;;;16.17;61.59;101746.03;5052114;27;103882;-49
2022/05/20 00:25:45;;;;;;;2.50;1.90;;;;;;;16.18;61.32;101755.91;5052044;27;102341;-49
2022/05/20 00:27:28;;;;;;;3.05;2.00;;;;;;;16.16;61.82;101750.69;5051353;27;102196;-49
2022/05/20 00:29:57;;;;;;;2.47;1.70;;;;;;;16.17;61.46;101748.78;5053652;27;102595;-49
2022/05/20 00:32:23;;;;;;;3.13;1.92;;;;;;;16.17;61.43;101748.78;5051832;27;103969;-49
2022/05/20 00:34:49;;;;;;;3.22;1.80;;;;;;;16.16;61.83;101749.88;5033905;27;102846;-49
2022/05/20 00:37:16;;;;;;;2.22;1.58;;;;;;;16.17;61.39;101748.78;5050530;27;102318;-50
2022/05/20 00:39:43;;;;;;;3.67;2.03;;;;;;;16.16;61.25;101744.38;5052428;27;102286;-49
2022/05/20 00:42:13;;;;;;;3.20;2.10;;;;;;;16.16;61.43;101741.66;5052037;27;103912;-49
2022/05/20 00:44:42;;;;;;;2.63;1.60;;;;;;;16.15;61.54;101746.28;5050203;27;102333;-50
2022/05/20 00:47:11;;;;;;;1.90;1.70;;;;;;;16.16;61.74;101747.13;5051512;27;101910;-50
2022/05/20 00:49:39;;;;;;;2.85;1.67;;;;;;;16.15;61.57;101746.28;5052093;27;102396;-49
2022/05/20 00:52:10;;;;;;;3.47;1.77;;;;;;;16.15;61.48;101743.53;5051212;27;104384;-49
2022/05/20 00:54:40;;;;;;;2.72;1.85;;;;;;;16.16;61.73;101744.38;5052602;27;102297;-50
2022/05/20 00:57:12;;;;;;;2.42;1.60;;;;;;;16.15;61.41;101749.03;5048329;27;102652;-49
2022/05/20 00:59:46;;;;;;;2.40;1.83;;;;;;;16.16;61.45;101750.69;5051983;27;102407;-49
2022/05/20 01:02:17;;;;;;;1.70;1.50;;;;;;;16.15;61.51;101748.22;5050785;27;103906;-49
2022/05/20 01:04:56;;;;;;;1.50;1.40;;;;;;;16.15;61.38;101751.78;5051748;27;102370;-50
2022/05/20 01:07:23;;;;;;;1.73;1.45;;;;;;;16.14;61.47;101752.91;5050279;27;102096;-49
2022/05/20 01:09:50;;;;;;;1.93;1.40;;;;;;;16.15;61.43;101753.72;5051394;27;102364;-49
2022/05/20 01:12:17;;;;;;;2.25;1.70;;;;;;;16.14;61.20;101743.84;5051290;27;103960;-49
2022/05/20 01:14:47;;;;;;;1.70;1.60;;;;;;;16.14;61.39;101754.81;5052161;27;102212;-49
2022/05/20 01:17:13;;;;;;;1.65;1.55;;;;;;;16.14;61.14;101754.81;5049720;27;102502;-49
2022/05/20 01:19:45;;;;;;;1.75;1.60;;;;;;;16.15;61.38;101767.44;5047421;27;102195;-49
2022/05/20 01:22:23;;;;;;;1.50;1.40;;;;;;;16.14;61.33;101757.56;5038210;27;103658;-49
2022/05/20 01:24:51;;;;;;;1.90;1.70;;;;;;;16.14;61.39;101752.06;5050852;27;102493;-49
2022/05/20 01:27:18;;;;;;;1.95;1.67;;;;;;;16.14;61.16;101757.56;5050963;27;101877;-49
2022/05/20 01:29:45;;;;;;;1.73;1.60;;;;;;;16.14;61.46;101768.56;5052335;27;102362;-51
2022/05/20 01:32:12;;;;;;;2.58;1.65;;;;;;;16.14;61.17;101768.56;5051066;27;103889;-49
2022/05/20 01:34:39;;;;;;;1.83;1.40;;;;;;;16.13;61.68;101761.44;5050829;27;102370;-49
2022/05/20 01:37:07;;;;;;;1.60;1.23;;;;;;;16.14;61.52;101774.03;5050851;27;101862;-49
2022/05/20 01:39:33;;;;;;;2.25;1.30;;;;;;;16.14;61.36;101771.31;5052192;27;102456;-50
2022/05/20 01:42:06;;;;;;;1.80;1.50;;;;;;;16.12;61.57;101760.59;5048059;27;104120;-50
2022/05/20 01:44:40;;;;;;;1.48;1.38;;;;;;;16.13;60.97;101769.66;5038733;27;101919;-49
2022/05/20 01:47:16;;;;;;;2.20;1.40;;;;;;;16.13;61.34;101767.75;5050493;27;102191;-50
2022/05/20 01:49:50;;;;;;;1.48;1.30;;;;;;;16.13;61.78;101769.66;5052017;27;102256;-49
2022/05/20 01:52:23;;;;;;;2.25;1.40;;;;;;;16.13;61.09;101769.66;5048289;27;103998;-50
2022/05/20 01:54:58;;;;;;;1.60;1.30;;;;;;;16.13;61.27;101764.19;5051649;27;101956;-49
2022/05/20 01:57:32;;;;;;;6.82;1.50;;;;;;;16.12;61.19;101763.34;5050429;27;102117;-49
2022/05/20 02:00:08;;;;;;;1.40;1.27;;;;;;;16.12;61.19;101759.75;5051854;27;102293;-50
2022/05/20 02:02:40;;;;;;;1.55;1.13;;;;;;;16.13;61.35;101761.44;5047372;27;103934;-49
2022/05/20 02:05:12;;;;;;;1.98;1.60;;;;;;;16.13;61.51;101764.19;5051442;27;102617;-49
2022/05/20 02:07:42;;;;;;;1.83;1.40;;;;;;;16.12;61.25;101757.03;5029575;27;102315;-49
2022/05/20 02:10:16;;;;;;;2.33;1.40;;;;;;;16.12;61.43;101760.59;5030824;28;102254;-50
2022/05/20 02:12:48;;;;;;;1.85;1.40;;;;;;;16.11;61.33;101761.69;5040084;27;104055;-50
2022/05/20 02:15:21;;;;;;;3.05;1.30;;;;;;;16.12;61.47;101751.53;5051459;27;101853;-49
2022/05/20 02:17:52;;;;;;;1.90;1.35;;;;;;;16.12;61.20;101751.53;5050282;27;102392;-50
2022/05/20 02:20:25;;;;;;;1.55;1.27;;;;;;;16.10;61.41;101746.34;5051784;27;102034;-49
2022/05/20 02:22:58;;;;;;;1.20;0.93;;;;;;;16.10;61.02;101749.91;5049697;27;103936;-50
2022/05/20 02:25:28;;;;;;;1.92;1.15;;;;;;;16.10;61.27;101749.91;5051628;27;102134;-49
2022/05/20 02:28:00;;;;;;;1.35;1.10;;;;;;;16.11;61.10;101753.44;5050855;27;102401;-50
2022/05/20 02:30:32;;;;;;;1.98;1.65;;;;;;;16.10;61.14;101749.91;5054176;27;101962;-50
2022/05/20 02:33:06;;;;;;;1.55;1.20;;;;;;;16.09;61.57;101755.69;5052888;27;103861;-49
2022/05/20 02:35:34;;;;;;;5.70;1.73;;;;;;;16.09;61.50;101751.00;5054195;27;102537;-50
2022/05/20 02:38:07;;;;;;;1.77;1.40;;;;;;;16.09;61.02;101748.25;5053929;27;102223;-49
2022/05/20 02:40:34;;;;;;;1.60;1.42;;;;;;;16.09;61.23;101764.72;5055069;27;102215;-49
2022/05/20 02:43:02;;;;;;;1.77;1.33;;;;;;;16.12;61.25;101779.00;5053097;27;103916;-49
2022/05/20 02:45:29;;;;;;;1.92;1.30;;;;;;;16.09;61.27;101774.91;5053996;27;101968;-49
2022/05/20 02:47:57;;;;;;;1.75;1.48;;;;;;;16.08;61.17;101782.31;5053634;27;101859;-49
2022/05/20 02:50:23;;;;;;;1.50;1.40;;;;;;;16.09;61.22;101780.41;5054210;27;102085;-49
2022/05/20 02:52:50;;;;;;;1.58;1.30;;;;;;;16.09;61.50;101774.91;5053220;27;103870;-50
2022/05/20 02:55:17;;;;;;;1.30;1.20;;;;;;;16.09;61.43;101788.63;5053916;27;102410;-49
2022/05/20 02:57:44;;;;;;;1.75;1.20;;;;;;;16.08;61.08;101779.56;5050362;27;102364;-49
2022/05/20 03:05:45;;;;;;;1.40;1.30;;;;;;;16.09;61.54;101785.88;5047828;27;102351;-50
2022/05/20 03:08:12;;;;;;;1.60;1.30;;;;;;;16.09;61.31;101783.97;5052325;27;102487;-49
2022/05/20 03:10:38;;;;;;;1.50;1.20;;;;;;;16.08;61.26;101778.72;5053152;27;102709;-49
2022/05/20 03:13:09;;;;;;;1.42;1.33;;;;;;;16.08;61.30;101779.56;5053343;27;103898;-49
2022/05/20 03:15:40;;;;;;;1.80;1.50;;;;;;;16.09;61.25;101777.66;5053952;27;102260;-49
2022/05/20 03:18:11;;;;;;;1.85;1.10;;;;;;;16.08;61.03;101781.47;5052405;27;102036;-49
2022/05/20 03:20:41;;;;;;;1.80;1.60;;;;;;;16.10;60.98;101788.34;5054775;27;102159;-49
2022/05/20 03:23:09;;;;;;;1.85;1.50;;;;;;;16.10;61.12;101771.88;5053548;27;103513;-49
2022/05/20 03:25:36;;;;;;;2.90;1.67;;;;;;;16.10;61.28;101782.03;5053805;27;101755;-49
2022/05/20 03:28:04;;;;;;;1.40;1.30;;;;;;;16.11;61.44;101778.16;5051974;27;102223;-50
2022/05/20 03:30:31;;;;;;;2.88;1.50;;;;;;;16.12;61.44;101779.00;5054663;27;101885;-49
2022/05/20 03:32:58;;;;;;;1.40;1.20;;;;;;;16.12;61.33;101779.84;5052870;27;103899;-50
2022/05/20 03:35:25;;;;;;;1.40;1.30;;;;;;;16.13;61.08;101780.66;5053667;27;102543;-49
2022/05/20 03:37:52;;;;;;;1.55;1.45;;;;;;;16.13;61.27;101780.66;5052289;27;102428;-50
2022/05/20 03:40:18;;;;;;;1.90;1.13;;;;;;;16.14;61.05;101787.78;5050573;27;102198;-49
2022/05/20 03:42:45;;;;;;;1.55;1.42;;;;;;;16.14;61.60;101782.28;5052326;27;103586;-50
2022/05/20 03:45:14;;;;;;;1.33;1.23;;;;;;;16.15;61.54;101782.00;5052902;27;101789;-49
2022/05/20 03:47:44;;;;;;;1.20;1.10;;;;;;;16.15;61.19;101782.00;5050625;27;102044;-49
2022/05/20 03:50:12;;;;;;;1.50;1.13;;;;;;;16.16;61.00;101777.34;5054234;27;102526;-50
2022/05/20 03:52:40;;;;;;;;;;;;;;;16.16;61.44;101791.06;5051454;27;104503;-49
2022/05/20 03:55:08;;;;;;;1.55;1.13;;;;;;;16.17;61.60;101793.53;5053543;27;102289;-50
2022/05/20 03:57:34;;;;;;;1.73;1.17;;;;;;;16.17;61.16;101792.72;5051107;27;102458;-49
2022/05/20 04:00:03;;;;;;;1.52;1.10;;;;;;;16.17;61.58;101795.44;5053651;27;102132;-50
2022/05/20 04:02:30;;;;;;;;;;;;;;;16.18;61.41;101783.34;5052750;27;103941;-50
2022/05/20 04:04:56;;;;;;;1.80;1.15;;;;;;;16.18;61.95;101783.34;5053266;27;101869;-49
2022/05/20 04:07:26;;;;;;;1.35;1.20;;;;;;;16.19;61.73;101790.47;5051412;27;101959;-49
2022/05/20 04:09:57;;;;;;;1.20;1.10;;;;;;;16.18;62.00;101786.91;5054060;27;101894;-50
2022/05/20 04:12:27;;;;;;;1.20;1.10;;;;;;;16.20;62.07;101792.16;5051974;27;103903;-49
2022/05/20 04:14:55;;;;;;;1.75;1.20;;;;;;;16.19;62.28;101796.81;5053164;27;101960;-49
2022/05/20 04:17:22;;;;;;;10.38;2.03;;;;;;;16.20;62.13;101792.16;5050895;27;102059;-49
2022/05/20 04:19:49;;;;;;;19.58;3.35;;;;;;;16.21;62.31;101802.03;5053438;27;102465;-50
2022/05/20 04:22:19;;;;;;;12.75;2.97;;;;;;;16.21;62.30;101810.25;5052140;27;103988;-49
2022/05/20 04:24:46;;;;;;;6.32;1.30;;;;;;;16.21;62.29;101804.78;5053501;27;102416;-49
2022/05/20 04:27:15;;;;;;;;;;;;;;;16.21;62.86;101804.78;5051713;27;102408;-49
2022/05/20 04:29:42;;;;;;;1.27;1.13;;;;;;;16.21;62.61;101802.03;5053568;27;102056;-49
2022/05/20 04:32:09;;;;;;;3.03;1.20;;;;;;;16.21;62.96;101802.03;5049568;27;104242;-49
2022/05/20 04:34:41;;;;;;;1.60;1.30;;;;;;;16.22;62.90;101800.91;5051078;27;101912;-49
2022/05/20 04:37:09;;;;;;;1.60;1.23;;;;;;;16.23;63.40;101802.56;5050712;27;102066;-49
2022/05/20 04:39:36;;;;;;;1.58;1.20;;;;;;;16.23;63.43;101808.88;5053672;27;102098;-49
2022/05/20 04:47:36;;;;;;;1.60;1.13;;;;;;;16.24;63.58;101804.22;5051235;27;101995;-49
2022/05/20 04:50:05;;;;;;;1.30;1.20;;;;;;;16.26;63.98;101796.50;5052600;27;102140;-49
2022/05/20 04:52:32;;;;;;;1.33;1.20;;;;;;;16.26;63.91;101812.97;5051168;27;103961;-50
2022/05/20 04:54:58;;;;;;;2.15;1.20;;;;;;;16.27;63.67;101803.66;5050329;27;102433;-49
2022/05/20 04:57:30;;;;;;;62.15;3.00;;;;;;;16.28;63.88;101805.28;5051051;27;102132;-50
2022/05/20 04:59:59;;;;;;;6.53;1.52;;;;;;;16.30;64.22;101805.81;5052406;27;102387;-49
2022/05/20 05:02:26;;;;;;;3.05;1.20;;;;;;;16.31;63.78;101804.72;5047740;27;103933;-49
2022/05/20 05:04:53;;;;;;;1.83;1.20;;;;;;;16.31;64.10;101800.03;5051580;27;102305;-49
2022/05/20 05:07:20;;;;;;;1.20;1.10;;;;;;;16.33;64.21;101797.00;5048541;27;102542;-51
2022/05/20 05:09:47;;;;;;;1.08;0.98;;;;;;;16.35;63.95;101803.03;5052189;27;102294;-49
2022/05/20 05:12:15;;;;;;;1.55;1.10;;;;;;;16.37;64.36;101809.06;5051291;27;104095;-49
2022/05/20 05:14:44;;;;;;;;;;;;;;;16.39;64.22;101806.03;5052795;27;101873;-50
2022/05/20 05:17:13;;;;;;;1.20;1.10;;;;;;;16.39;64.15;101812.34;5051703;27;102385;-49
2022/05/20 05:19:42;;;;;;;1.63;1.02;;;;;;;16.41;64.13;101804.66;5050956;27;102117;-50
2022/05/20 05:22:08;;;;;;;1.20;1.10;;;;;;;16.43;64.04;101813.41;5030742;27;104059;-49
2022/05/20 05:24:37;;;;;;;1.13;0.98;;;;;;;16.44;64.01;101817.81;5041412;27;102370;-49
2022/05/20 05:27:05;;;;;;;2.03;1.30;;;;;;;16.46;64.07;101807.38;5051158;27;107238;-49
2022/05/20 05:29:34;;;;;;;1.63;1.05;;;;;;;16.48;64.13;101815.31;5046568;27;102190;-49
2022/05/20 05:32:02;;;;;;;1.60;1.10;;;;;;;16.49;63.79;101816.97;5031671;27;104034;-50
2022/05/20 05:34:28;;;;;;;2.73;1.10;;;;;;;16.49;63.72;101815.03;5031634;28;102089;-49
2022/05/20 05:36:56;;;;;;;2.35;1.00;;;;;;;16.50;63.59;101808.44;5048665;27;102012;-49
2022/05/20 05:39:23;;;;;;;2.05;1.10;;;;;;;16.53;63.74;101813.38;5047961;27;102119;-49
2022/05/20 05:41:49;;;;;;;2.50;1.02;;;;;;;16.54;63.94;101809.50;5045274;27;103914;-49
2022/05/20 05:44:15;;;;;;;1.55;1.17;;;;;;;16.55;63.76;101805.66;5051556;27;102206;-49
2022/05/20 05:46:43;;;;;;;1.65;1.00;;;;;;;16.57;63.32;101802.63;5048907;27;102003;-49
2022/05/20 05:49:11;;;;;;;1.20;1.10;;;;;;;16.60;63.03;101795.75;5051714;27;102234;-49
2022/05/20 05:51:38;;;;;;;1.42;1.10;;;;;;;16.62;63.20;101796.25;5044884;27;104180;-49
2022/05/20 05:54:04;;;;;;;1.10;1.00;;;;;;;16.63;62.97;101795.19;5047950;27;102502;-50
2022/05/20 05:56:31;;;;;;;1.25;1.05;;;;;;;16.65;62.83;101795.69;5030699;27;102217;-49
2022/05/20 05:58:58;;;;;;;1.90;1.10;;;;;;;16.67;62.40;101796.25;5051455;27;102221;-49
2022/05/20 06:01:25;;;;;;;1.15;1.05;;;;;;;16.70;62.19;101801.19;5048518;27;103778;-49
2022/05/20 06:03:52;;;;;;;1.88;1.42;;;;;;;16.71;62.44;101805.56;5052203;27;101926;-49
2022/05/20 06:06:19;;;;;;;1.55;1.20;;;;;;;16.73;62.47;101806.06;5053915;27;102391;-49
2022/05/20 06:08:47;;;;;;;1.20;1.10;;;;;;;16.74;61.91;101805.03;5053541;27;102471;-49
2022/05/20 06:11:15;;;;;;;1.20;1.10;;;;;;;16.75;61.98;101795.66;5041995;27;103922;-49
2022/05/20 06:13:41;;;;;;;1.65;1.20;;;;;;;16.75;62.46;101801.97;5049622;27;102314;-49
2022/05/20 06:16:08;;;;;;;1.80;0.90;;;;;;;16.75;62.00;101803.91;5039194;27;102086;-49
2022/05/20 06:18:35;;;;;;;1.70;1.20;;;;;;;16.75;61.93;101796.47;5040309;27;102354;-49
2022/05/20 06:21:04;;;;;;;1.48;0.90;;;;;;;16.77;62.00;101796.19;5049875;27;103877;-49
2022/05/20 06:23:32;;;;;;;1.52;1.10;;;;;;;16.78;61.93;101792.34;5054473;27;101943;-50
2022/05/20 06:25:58;;;;;;;1.13;0.90;;;;;;;16.78;62.01;101790.41;5054248;27;101892;-49
2022/05/20 06:28:25;;;;;;;1.80;1.10;;;;;;;16.80;61.94;101790.97;5055219;27;102428;-49
2022/05/20 06:30:52;;;;;;;1.10;1.00;;;;;;;16.79;62.32;101789.28;5052303;27;104109;-50
2022/05/20 06:33:18;;;;;;;1.67;1.02;;;;;;;16.81;62.02;101791.78;5041648;27;102546;-50
2022/05/20 06:41:17;;;;;;;1.00;0.90;;;;;;;16.86;61.81;101788.97;5043217;27;103862;-49
2022/05/20 06:43:44;;;;;;;1.30;1.10;;;;;;;16.87;61.90;101801.59;5051462;27;102425;-50
2022/05/20 06:46:10;;;;;;;0.98;0.90;;;;;;;16.87;62.06;101798.84;5052025;27;103832;-49
2022/05/20 06:48:43;;;;;;;2.58;1.30;;;;;;;16.90;61.62;101801.03;5047392;27;102810;-49
2022/05/20 06:51:12;;;;;;;1.10;1.00;;;;;;;16.91;61.76;101808.16;5047053;27;103856;-49
2022/05/20 06:53:40;;;;;;;1.10;1.00;;;;;;;16.92;61.86;101809.00;5033214;27;104486;-49
2022/05/20 06:56:07;;;;;;;1.02;0.93;;;;;;;16.93;61.81;101813.38;5052632;27;104347;-49
2022/05/20 06:58:34;;;;;;;1.10;1.00;;;;;;;16.92;61.64;101798.81;5040223;27;102378;-49
2022/05/20 07:01:00;;;;;;;1.20;1.00;;;;;;;16.93;61.58;101805.97;5048438;27;103894;-49
2022/05/20 07:03:28;;;;;;;1.40;1.10;;;;;;;16.93;62.02;101811.47;5045297;27;102578;-49
2022/05/20 07:05:55;;;;;;;1.08;0.98;;;;;;;16.95;61.52;101802.91;5051610;27;101979;-49
2022/05/20 07:08:25;;;;;;;1.77;1.00;;;;;;;16.95;61.79;101806.50;5053198;27;102617;-49
2022/05/20 07:10:52;;;;;;;1.75;0.90;;;;;;;16.97;61.77;101807.00;5053333;27;103874;-49
2022/05/20 07:13:19;;;;;;;2.10;1.20;;;;;;;16.95;61.88;101806.50;5053964;27;102303;-51
2022/05/20 07:15:47;;;;;;;1.15;1.05;;;;;;;16.96;61.63;101804.56;5052725;27;102647;-49
2022/05/20 07:18:13;;;;;;;1.20;1.00;;;;;;;16.98;61.91;101811.41;5053826;27;102254;-49
2022/05/20 07:20:41;;;;;;;0.95;0.82;;;;;;;16.97;61.68;101812.50;5051393;27;103895;-49
2022/05/20 07:23:07;;;;;;;1.02;1.00;;;;;;;16.98;61.44;101808.66;5052915;27;101895;-50
2022/05/20 07:25:36;;;;;;;1.10;0.80;;;;;;;16.99;61.28;101804.81;5050866;27;102046;-49
2022/05/20 07:28:05;;;;;;;0.80;0.80;;;;;;;16.98;61.75;101802.34;5053098;27;102516;-49
2022/05/20 07:30:33;;;;;;;0.70;0.70;;;;;;;16.99;61.99;101802.06;5052024;27;103918;-49
2022/05/20 07:33:00;;;;;;;1.52;0.95;;;;;;;17.00;61.34;101811.94;5052497;27;102522;-49
2022/05/20 07:35:27;;;;;;;1.17;1.00;;;;;;;17.00;61.69;101800.13;5036663;27;101976;-50
2022/05/20 07:37:54;;;;;;;1.35;1.00;;;;;;;17.00;61.84;101811.94;5053897;27;102216;-50
2022/05/20 07:40:22;;;;;;;0.90;0.90;;;;;;;16.99;61.64;101807.56;5052957;27;103839;-49
2022/05/20 07:42:48;;;;;;;1.00;0.90;;;;;;;16.99;61.71;101799.31;5053488;27;101906;-50
2022/05/20 07:45:19;;;;;;;1.00;0.90;;;;;;;17.00;61.94;101800.13;5053180;27;102433;-50
2022/05/20 07:47:46;;;;;;;0.90;0.70;;;;;;;17.01;61.65;101801.75;5053659;27;102132;-49
2022/05/20 07:50:14;;;;;;;1.10;1.00;;;;;;;17.00;61.62;101800.94;5052742;27;103964;-49
2022/05/20 07:55:33;;;;;;;0.90;0.80;;;;;;;17.03;61.86;101800.38;5052854;27;101903;-49
2022/05/20 07:58:02;;;;;;;1.20;0.98;;;;;;;17.04;61.92;101806.69;5053685;27;102053;-50
2022/05/20 08:00:32;;;;;;;0.82;0.82;;;;;;;17.03;61.56;101807.81;5052151;27;104274;-49
2022/05/20 08:03:01;;;;;;;1.00;0.75;;;;;;;17.03;61.63;101802.31;5053072;27;102298;-49
2022/05/20 08:05:29;;;;;;;1.02;0.93;;;;;;;17.03;61.27;101805.06;5052537;27;102302;-49
2022/05/20 08:08:00;;;;;;;2.38;0.85;;;;;;;17.03;61.47;101805.88;5053470;27;102354;-49
2022/05/20 08:10:29;;;;;;;1.00;0.90;;;;;;;17.04;61.44;101802.00;5052322;27;103691;-50
2022/05/20 08:12:56;;;;;;;;;;;;;;;17.03;61.90;101803.13;5053079;27;102018;-49
2022/05/20 08:15:24;;;;;;;1.30;1.10;;;;;;;17.04;61.76;101813.00;5051709;27;102340;-49
2022/05/20 08:17:53;;;;;;;1.02;0.80;;;;;;;17.01;61.59;101802.56;5034913;27;102594;-50
2022/05/20 08:20:23;;;;;;;1.63;1.20;;;;;;;17.02;61.49;101795.16;5050954;27;104323;-49
2022/05/20 08:22:50;;;;;;;1.02;0.93;;;;;;;17.03;61.28;101791.31;5051795;27;102422;-49
2022/05/20 08:25:17;;;;;;;0.90;0.90;;;;;;;17.03;61.54;101786.63;5051688;27;102011;-50
2022/05/20 08:27:44;;;;;;;2.28;1.17;;;;;;;17.04;61.02;101791.00;5051607;27;102404;-49
2022/05/20 08:30:13;;;;;;;1.10;0.95;;;;;;;17.04;61.23;101784.69;5051304;27;103948;-50
2022/05/20 08:32:40;;;;;;;1.20;1.10;;;;;;;17.04;61.54;101790.19;5049828;27;102298;-49
2022/05/20 08:35:10;;;;;;;1.00;0.80;;;;;;;17.04;61.66;101787.44;5041081;27;102381;-49
2022/05/20 08:37:38;;;;;;;1.08;0.93;;;;;;;17.04;61.34;101781.94;5053314;27;102811;-49
2022/05/20 08:40:07;;;;;;;0.70;0.70;;;;;;;17.02;61.44;101776.75;5052263;27;103915;-50
2022/05/20 08:42:36;;;;;;;1.10;1.00;;;;;;;17.03;61.65;101778.38;5052409;27;102029;-50
2022/05/20 08:45:05;;;;;;;1.10;1.00;;;;;;;17.02;61.04;101771.25;5052489;27;102377;-49
2022/05/20 08:47:39;;;;;;;1.20;1.10;;;;;;;17.03;61.30;101772.06;5052506;27;102883;-50
2022/05/20 08:50:13;;;;;;;1.00;0.90;;;;;;;17.01;61.70;101769.56;5051796;27;103913;-49
2022/05/20 08:52:41;;;;;;;1.40;1.27;;;;;;;17.02;61.14;101776.75;5052241;27;102568;-50
2022/05/20 08:55:09;;;;;;;1.75;1.17;;;;;;;17.03;61.24;101772.88;5051916;27;101888;-49
2022/05/20 08:57:36;;;;;;;1.35;0.90;;;;;;;17.03;61.72;101761.88;5052167;27;101956;-49
2022/05/20 09:00:04;;;;;;;1.42;1.00;;;;;;;17.01;61.43;101766.81;5050601;27;104104;-49
2022/05/20 09:02:32;;;;;;;2.25;0.98;;;;;;;17.02;61.73;101760.25;5051685;27;103022;-49
2022/05/20 09:05:00;;;;;;;;;;;;;;;17.02;61.23;101760.25;5051977;27;102954;-50
2022/05/20 09:07:55;;;;;;;2.25;0.93;;;;;;;17.01;61.43;101763.25;5052453;27;102767;-49
2022/05/20 09:10:29;;;;;;;1.25;0.85;;;;;;;17.02;61.67;101754.75;5031350;27;103858;-50
2022/05/20 09:13:13;;;;;;;1.27;1.05;;;;;;;17.02;61.47;101754.75;5031633;28;102315;-50
2022/05/20 09:15:44;;;;;;;1.33;1.10;;;;;;;17.01;61.25;101747.56;5031319;27;101973;-49
2022/05/20 09:18:29;;;;;;;1.50;0.95;;;;;;;17.00;61.74;101739.63;5032445;27;102445;-49
2022/05/20 09:20:56;;;;;;;1.35;0.90;;;;;;;16.99;61.31;101741.56;5031159;28;103861;-49
2022/05/20 09:23:26;;;;;;;1.30;0.80;;;;;;;16.99;61.79;101738.00;5031519;28;102539;-49
2022/05/20 09:26:11;;;;;;;1.15;1.00;;;;;;;17.00;61.86;101734.94;5033998;27;102353;-49
2022/05/20 09:28:40;;;;;;;2.38;0.90;;;;;;;17.00;61.35;101728.63;5051896;27;102294;-49
2022/05/20 09:31:15;;;;;;;0.98;0.88;;;;;;;16.99;61.60;101736.06;5051303;27;103960;-49
2022/05/20 09:33:49;;;;;;;1.27;1.00;;;;;;;16.99;61.48;101725.06;5052064;27;102468;-50
2022/05/20 09:36:34;;;;;;;1.02;0.93;;;;;;;16.98;61.55;101731.66;5038535;27;102260;-49
2022/05/20 09:39:10;;;;;;;1.10;1.00;;;;;;;16.99;61.61;101727.81;5031124;27;102520;-49
2022/05/20 09:41:45;;;;;;;1.10;0.80;;;;;;;16.97;61.60;101719.03;5031259;27;104175;-49
2022/05/20 09:44:13;;;;;;;1.15;0.90;;;;;;;16.97;61.53;101719.03;5034499;27;102051;-49
2022/05/20 09:46:49;;;;;;;1.40;0.90;;;;;;;16.97;61.73;101719.03;5035899;27;102411;-49
2022/05/20 09:49:21;;;;;;;1.20;1.00;;;;;;;16.96;61.53;101711.91;5038470;27;102592;-49
2022/05/20 09:51:54;;;;;;;1.23;1.10;;;;;;;16.95;61.91;101706.66;5045848;27;103835;-49
2022/05/20 09:54:28;;;;;;;2.10;1.20;;;;;;;16.95;61.56;101698.41;5044594;27;102733;-50
2022/05/20 09:57:03;;;;;;;1.08;0.98;;;;;;;16.94;61.58;101691.28;5031287;28;101993;-49
2022/05/20 09:59:39;;;;;;;1.10;0.90;;;;;;;16.92;61.53;101686.09;5047617;27;101998;-49
2022/05/20 10:02:13;;;;;;;1.30;1.15;;;;;;;16.92;61.39;101677.84;5050078;27;104125;-49
2022/05/20 10:04:57;;;;;;;1.85;0.80;;;;;;;16.92;61.69;101677.84;5050693;27;102118;-49
2022/05/20 10:07:34;;;;;;;1.88;1.05;;;;;;;16.93;61.51;101673.97;5033979;27;102708;-49
2022/05/20 10:10:08;;;;;;;4.55;1.10;;;;;;;16.92;61.30;101683.34;5032027;28;102375;-49
2022/05/20 10:12:38;;;;;;;1.10;1.00;;;;;;;16.91;61.52;101670.69;5034283;27;104705;-49
2022/05/20 10:15:13;;;;;;;1.40;1.08;;;;;;;16.92;61.61;101672.34;5044872;27;102441;-49
2022/05/20 10:17:57;;;;;;;1.40;1.00;;;;;;;16.92;61.76;101661.34;5048543;27;102350;-49
2022/05/20 10:20:29;;;;;;;1.55;1.17;;;;;;;16.90;61.93;101658.06;5052126;27;102259;-49
2022/05/20 10:23:04;;;;;;;2.17;1.00;;;;;;;16.90;61.76;101660.81;5046461;27;103805;-49
2022/05/20 10:25:38;;;;;;;1.67;1.10;;;;;;;16.90;61.72;101649.81;5051402;27;102013;-49
2022/05/20 10:34:02;;;;;;;1.65;1.30;;;;;;;16.89;62.19;101644.63;5041441;27;103905;-49
2022/05/20 10:36:38;;;;;;;1.35;1.00;;;;;;;16.88;62.03;101641.03;5051075;27;102004;-50
2022/05/20 10:39:15;;;;;;;1.35;0.95;;;;;;;16.88;62.12;101642.94;5050045;27;102279;-49
2022/05/20 10:42:00;;;;;;;1.20;1.00;;;;;;;16.87;62.23;101642.13;5050320;27;102708;-50
2022/05/20 10:50:33;;;;;;;1.27;0.95;;;;;;;16.85;62.23;101622.38;5050416;27;102443;-49
2022/05/20 10:53:08;;;;;;;1.17;1.08;;;;;;;16.86;61.96;101621.25;5054983;27;102163;-49
2022/05/20 10:55:59;;;;;;;1.17;0.88;;;;;;;16.86;62.23;101618.50;5053666;27;103996;-49
2022/05/20 10:58:55;;;;;;;1.58;0.75;;;;;;;16.85;62.26;101611.38;5049262;27;102424;-49
2022/05/20 11:01:33;;;;;;;1.10;0.88;;;;;;;16.85;62.14;101614.13;5045216;27;102769;-49
2022/05/20 11:04:35;;;;;;;1.40;1.00;;;;;;;16.84;62.26;101607.00;5053396;27;102919;-49
2022/05/20 11:07:28;;;;;;;0.95;0.82;;;;;;;16.83;62.41;101599.84;5045103;27;103901;-49
2022/05/20 11:10:11;;;;;;;1.00;0.85;;;;;;;16.82;62.09;101592.72;5034325;28;102428;-49
2022/05/20 11:12:48;;;;;;;1.30;0.80;;;;;;;16.83;62.28;101597.09;5033092;27;102041;-49
2022/05/20 11:15:29;;;;;;;1.77;1.00;;;;;;;16.83;62.55;101605.34;5035050;28;101965;-49
2022/05/20 11:18:26;;;;;;;1.85;1.10;;;;;;;16.82;62.03;101595.47;5052194;27;103871;-50
2022/05/20 11:21:16;;;;;;;1.50;0.97;;;;;;;16.83;62.26;101596.28;5054198;27;101927;-50
2022/05/20 11:23:58;;;;;;;1.65;1.10;;;;;;;16.82;62.39;101589.97;5052796;27;102185;-49
2022/05/20 11:26:46;;;;;;;2.55;0.90;;;;;;;16.81;62.61;101588.34;5054605;27;102494;-50
2022/05/20 11:29:46;;;;;;;1.02;0.77;;;;;;;16.81;62.41;101588.34;5052658;27;104039;-49
2022/05/20 11:32:22;;;;;;;1.50;1.30;;;;;;;16.80;62.38;101581.19;5053143;27;102236;-49
2022/05/20 11:35:22;;;;;;;1.20;0.90;;;;;;;16.81;62.73;101577.34;5050376;27;102195;-49
2022/05/20 11:38:15;;;;;;;2.03;1.20;;;;;;;16.80;62.37;101571.03;5045349;27;102199;-49
2022/05/20 11:41:06;;;;;;;1.00;0.90;;;;;;;16.80;62.55;101576.53;5047468;27;103877;-49
2022/05/20 11:43:56;;;;;;;1.52;0.90;;;;;;;16.80;62.34;101559.19;5052988;27;102476;-50
2022/05/20 11:46:36;;;;;;;1.15;0.88;;;;;;;16.80;62.31;101559.19;5046288;27;102474;-50
2022/05/20 11:49:22;;;;;;;0.98;0.90;;;;;;;16.79;62.57;101552.06;5044917;27;102433;-49
2022/05/20 11:52:15;;;;;;;1.55;1.00;;;;;;;16.79;62.63;101546.56;5052637;27;103911;-49
2022/05/20 11:54:50;;;;;;;0.75;0.73;;;;;;;16.79;62.56;101543.81;5047004;27;102093;-49
2022/05/20 11:57:22;;;;;;;1.10;1.00;;;;;;;16.78;62.64;101540.25;5048125;27;102466;-50
2022/05/20 12:00:00;;;;;;;1.23;1.00;;;;;;;16.79;62.74;101538.31;5056479;27;102093;-50
2022/05/20 12:02:28;;;;;;;1.15;0.90;;;;;;;16.78;62.69;101529.25;5045084;27;104167;-50
2022/05/20 12:04:59;;;;;;;0.80;0.80;;;;;;;16.79;62.77;101532.81;5051924;27;102546;-49
2022/05/20 12:07:26;;;;;;;1.05;0.80;;;;;;;16.78;62.79;101523.75;5048550;27;102148;-49